Time;durP1;ratioP1;P1;durP2;ratioP2;P2;SDS_P1;SDS_P2;PMS_P1;PMS_P2;Temp;Humidity;BMP_temperature;BMP_pressure;BME280_temperature;BME280_humidity;BME280_pressure;Samples;Min_cycle;Max_cycle;Signal;HPM_P1;HPM_P2
2020/12/16 00:00:09;;;;;;;67.97;32.58;;;;;;;;;;5070516;28;20119;-79
2020/12/16 00:02:35;;;;;;;129.35;35.90;;;;;;;;;;5070755;28;20065;-79
2020/12/16 00:05:01;;;;;;;117.30;32.63;;;;;;;;;;5070641;28;20020;-79
2020/12/16 00:07:27;;;;;;;75.78;30.05;;;;;;;;;;5070818;28;20107;-79
2020/12/16 00:09:53;;;;;;;94.55;29.25;;;;;;;;;;5070790;28;20051;-78
2020/12/16 00:12:19;;;;;;;38.92;19.83;;;;;;;;;;5070538;28;20098;-78
2020/12/16 00:14:45;;;;;;;120.20;31.65;;;;;;;;;;5072072;28;20017;-78
2020/12/16 00:17:12;;;;;;;64.93;28.80;;;;;;;;;;5071692;28;20094;-78
2020/12/16 00:19:38;;;;;;;119.03;33.47;;;;;;;;;;5070393;28;20060;-78
2020/12/16 00:22:04;;;;;;;47.83;25.70;;;;;;;;;;5070426;28;20048;-78
2020/12/16 00:24:30;;;;;;;61.80;29.33;;;;;;;;;;5071703;28;20020;-78
2020/12/16 00:26:56;;;;;;;40.25;19.92;;;;;;;;;;5070466;28;20025;-78
2020/12/16 00:29:22;;;;;;;202.50;36.08;;;;;;;;;;5070565;28;20360;-78
2020/12/16 00:31:48;;;;;;;124.47;32.47;;;;;;;;;;5070714;28;20016;-79
2020/12/16 00:34:14;;;;;;;131.23;34.40;;;;;;;;;;5073766;28;20032;-79
2020/12/16 00:36:41;;;;;;;62.13;30.25;;;;;;;;;;5075545;28;20016;-78
2020/12/16 00:39:07;;;;;;;320.17;42.65;;;;;;;;;;5074977;28;20025;-79
2020/12/16 00:41:33;;;;;;;86.47;31.15;;;;;;;;;;5073743;28;20074;-78
2020/12/16 00:44:00;;;;;;;86.20;31.65;;;;;;;;;;5073453;28;20401;-79
2020/12/16 00:46:26;;;;;;;82.07;28.38;;;;;;;;;;5074929;28;20021;-79
2020/12/16 00:48:52;;;;;;;74.55;29.80;;;;;;;;;;5075041;28;20021;-78
2020/12/16 00:51:18;;;;;;;45.80;21.60;;;;;;;;;;5073359;28;20025;-78
2020/12/16 00:53:44;;;;;;;155.13;35.42;;;;;;;;;;5073573;28;20032;-79
2020/12/16 00:56:10;;;;;;;136.30;32.80;;;;;;;;;;5074701;28;20020;-78
2020/12/16 00:58:36;;;;;;;83.03;27.92;;;;;;;;;;5073750;28;20047;-79
2020/12/16 01:01:03;;;;;;;166.68;28.98;;;;;;;;;;5073494;28;20105;-78
2020/12/16 01:03:29;;;;;;;125.05;32.95;;;;;;;;;;5073664;28;20021;-77
2020/12/16 01:05:55;;;;;;;108.90;33.15;;;;;;;;;;5073715;28;20024;-77
2020/12/16 01:08:22;;;;;;;116.05;26.98;;;;;;;;;;5073432;28;20024;-77
2020/12/16 01:10:48;;;;;;;32.30;17.33;;;;;;;;;;5073679;28;20074;-77
2020/12/16 01:13:14;;;;;;;110.65;33.35;;;;;;;;;;5073480;28;20042;-78
2020/12/16 01:15:40;;;;;;;94.93;33.58;;;;;;;;;;5074848;28;20016;-78
2020/12/16 01:18:06;;;;;;;119.10;31.33;;;;;;;;;;5073093;28;20044;-78
2020/12/16 01:20:32;;;;;;;150.93;38.55;;;;;;;;;;5073325;28;20078;-78
2020/12/16 01:22:58;;;;;;;82.15;32.17;;;;;;;;;;5073358;28;20024;-78
2020/12/16 01:25:24;;;;;;;63.78;32.40;;;;;;;;;;5074440;28;20027;-78
2020/12/16 01:27:53;;;;;;;120.03;32.78;;;;;;;;;;5073310;28;20024;-78
2020/12/16 01:30:19;;;;;;;61.80;30.58;;;;;;;;;;5072975;28;20031;-78
2020/12/16 01:32:45;;;;;;;73.13;30.48;;;;;;;;;;5073231;28;20070;-78
2020/12/16 01:35:12;;;;;;;75.40;27.33;;;;;;;;;;5072987;28;20051;-78
2020/12/16 01:37:38;;;;;;;179.85;36.42;;;;;;;;;;5073113;28;20027;-78
2020/12/16 01:40:05;;;;;;;141.65;33.80;;;;;;;;;;5072749;28;20032;-77
2020/12/16 01:42:31;;;;;;;188.80;35.90;;;;;;;;;;5073042;28;20024;-78
2020/12/16 01:44:57;;;;;;;61.60;26.77;;;;;;;;;;5072307;28;20360;-78
2020/12/16 01:47:23;;;;;;;117.18;28.00;;;;;;;;;;5072746;28;20107;-77
2020/12/16 01:49:49;;;;;;;44.97;24.00;;;;;;;;;;5074099;28;20017;-78
2020/12/16 01:52:19;;;;;;;43.63;22.33;;;;;;;;;;5073748;28;20361;-78
2020/12/16 01:54:46;;;;;;;249.35;32.00;;;;;;;;;;5072863;28;20027;-78
2020/12/16 01:57:13;;;;;;;142.38;30.02;;;;;;;;;;5072516;28;20008;-78
2020/12/16 01:59:39;;;;;;;111.35;31.08;;;;;;;;;;5073690;28;20048;-78
2020/12/16 02:02:10;;;;;;;115.18;34.33;;;;;;;;;;5073739;28;20042;-78
2020/12/16 02:04:39;;;;;;;121.38;36.88;;;;;;;;;;5073686;28;20021;-78
2020/12/16 02:07:07;;;;;;;143.18;34.55;;;;;;;;;;5072295;28;20016;-78
2020/12/16 02:09:38;;;;;;;73.53;30.60;;;;;;;;;;5072525;28;20021;-79
2020/12/16 02:12:08;;;;;;;117.57;35.13;;;;;;;;;;5060419;28;20505;-78
2020/12/16 02:14:34;;;;;;;;;;;;;;;;;;5052695;28;20445;-78
2020/12/16 02:17:00;;;;;;;85.85;29.42;;;;;;;;;;5051494;28;19912;-78
2020/12/16 02:19:29;;;;;;;69.40;28.27;;;;;;;;;;5052056;28;20025;-78
2020/12/16 02:21:55;;;;;;;77.78;26.13;;;;;;;;;;5052248;28;20078;-78
2020/12/16 02:24:22;;;;;;;166.95;33.60;;;;;;;;;;5052984;28;20025;-78
2020/12/16 02:26:48;;;;;;;197.38;34.10;;;;;;;;;;5052174;28;20025;-78
2020/12/16 02:29:14;;;;;;;68.93;24.77;;;;;;;;;;5051902;28;20523;-78
2020/12/16 02:31:40;;;;;;;104.20;24.05;;;;;;;;;;5052146;28;20025;-78
2020/12/16 02:34:06;;;;;;;187.57;34.35;;;;;;;;;;5053388;28;20021;-79
2020/12/16 02:36:32;;;;;;;79.10;26.23;;;;;;;;;;5052001;28;20020;-76
2020/12/16 02:38:58;;;;;;;47.38;20.92;;;;;;;;;;5051873;28;20523;-79
2020/12/16 02:41:27;;;;;;;206.88;33.30;;;;;;;;;;5051737;28;20036;-79
2020/12/16 02:43:53;;;;;;;57.03;25.58;;;;;;;;;;5051906;28;20112;-78
2020/12/16 02:46:19;;;;;;;150.23;35.00;;;;;;;;;;5051591;28;20052;-79
2020/12/16 02:48:45;;;;;;;43.10;23.17;;;;;;;;;;5051775;28;20486;-78
2020/12/16 02:51:11;;;;;;;193.80;33.00;;;;;;;;;;5052795;28;20076;-79
2020/12/16 02:53:37;;;;;;;33.47;21.73;;;;;;;;;;5051750;28;20021;-79
2020/12/16 02:56:03;;;;;;;241.50;37.95;;;;;;;;;;5052920;28;20405;-79
2020/12/16 02:58:29;;;;;;;249.48;36.38;;;;;;;;;;5051090;28;20457;-79
2020/12/16 03:00:55;;;;;;;177.70;36.60;;;;;;;;;;5051536;28;20025;-77
2020/12/16 03:03:21;;;;;;;75.88;33.35;;;;;;;;;;5051487;28;20106;-77
2020/12/16 03:05:47;;;;;;;27.13;17.35;;;;;;;;;;5051484;28;20028;-77
2020/12/16 03:08:13;;;;;;;204.80;33.45;;;;;;;;;;5052790;28;20017;-77
2020/12/16 03:10:39;;;;;;;158.77;33.08;;;;;;;;;;5051498;28;20044;-77
2020/12/16 03:13:05;;;;;;;233.70;37.42;;;;;;;;;;5069408;28;20021;-77
2020/12/16 03:15:32;;;;;;;28.33;18.85;;;;;;;;;;5071123;28;20469;-77
2020/12/16 03:17:58;;;;;;;45.58;21.08;;;;;;;;;;5071146;28;20052;-78
2020/12/16 03:20:24;;;;;;;36.63;19.23;;;;;;;;;;5070957;28;20055;-78
2020/12/16 03:22:50;;;;;;;92.68;29.08;;;;;;;;;;5071324;28;20460;-78
2020/12/16 03:25:16;;;;;;;115.00;30.75;;;;;;;;;;5070678;28;20028;-78
2020/12/16 03:27:42;;;;;;;41.72;21.30;;;;;;;;;;5072527;28;20025;-78
2020/12/16 03:30:08;;;;;;;182.90;32.25;;;;;;;;;;5071149;28;20016;-78
2020/12/16 03:32:34;;;;;;;145.90;29.50;;;;;;;;;;5072185;28;20379;-78
2020/12/16 03:35:00;;;;;;;203.07;39.67;;;;;;;;;;5070925;28;20027;-78
2020/12/16 03:37:26;;;;;;;86.35;28.52;;;;;;;;;;5070855;28;20024;-78
2020/12/16 03:39:52;;;;;;;105.93;32.58;;;;;;;;;;5071078;28;20025;-78
2020/12/16 03:42:18;;;;;;;68.45;25.92;;;;;;;;;;5070918;28;20016;-78
2020/12/16 03:44:45;;;;;;;74.32;30.17;;;;;;;;;;5071026;28;20025;-78
2020/12/16 03:47:11;;;;;;;78.97;26.42;;;;;;;;;;5072084;28;20488;-78
2020/12/16 03:49:37;;;;;;;63.80;28.73;;;;;;;;;;5071052;28;20040;-78
2020/12/16 03:52:03;;;;;;;61.58;26.80;;;;;;;;;;5072194;28;20031;-78
2020/12/16 03:54:29;;;;;;;162.35;32.20;;;;;;;;;;5070647;28;20499;-78
2020/12/16 03:56:55;;;;;;;91.13;29.75;;;;;;;;;;5070897;28;20020;-78
2020/12/16 03:59:21;;;;;;;93.40;29.20;;;;;;;;;;5070542;28;20028;-78
2020/12/16 04:01:47;;;;;;;46.78;24.23;;;;;;;;;;5070801;28;20465;-80
2020/12/16 04:04:13;;;;;;;70.95;28.15;;;;;;;;;;5072181;28;20171;-78
2020/12/16 04:06:39;;;;;;;74.13;26.80;;;;;;;;;;5070803;28;20012;-78
2020/12/16 04:09:05;;;;;;;95.07;28.88;;;;;;;;;;5074158;28;20029;-78
2020/12/16 04:11:31;;;;;;;66.60;25.90;;;;;;;;;;5074444;28;20028;-79
2020/12/16 04:13:57;;;;;;;196.15;34.67;;;;;;;;;;5074665;28;20020;-78
2020/12/16 04:16:24;;;;;;;64.93;25.95;;;;;;;;;;5075437;28;20092;-78
2020/12/16 04:18:50;;;;;;;72.63;22.38;;;;;;;;;;5074650;28;20019;-78
2020/12/16 04:21:18;;;;;;;57.58;25.70;;;;;;;;;;5074409;28;20029;-78
2020/12/16 04:23:44;;;;;;;44.75;22.17;;;;;;;;;;5075902;28;20012;-78
2020/12/16 04:26:10;;;;;;;125.75;27.17;;;;;;;;;;5074156;28;20024;-78
2020/12/16 04:28:37;;;;;;;45.15;24.00;;;;;;;;;;5074197;28;20012;-78
2020/12/16 04:31:04;;;;;;;25.75;16.92;;;;;;;;;;5074341;28;20035;-78
2020/12/16 04:33:30;;;;;;;52.75;23.10;;;;;;;;;;5074141;28;20073;-78
2020/12/16 04:35:56;;;;;;;53.67;20.83;;;;;;;;;;5074258;28;20094;-78
2020/12/16 04:38:22;;;;;;;61.33;23.73;;;;;;;;;;5073957;28;20040;-78
2020/12/16 04:40:48;;;;;;;50.80;22.95;;;;;;;;;;5074156;28;20445;-78
2020/12/16 04:43:19;;;;;;;61.75;22.38;;;;;;;;;;5073905;28;20024;-78
2020/12/16 04:45:45;;;;;;;28.95;16.55;;;;;;;;;;5075378;28;20017;-78
2020/12/16 04:48:13;;;;;;;77.75;25.83;;;;;;;;;;5075659;28;20043;-79
2020/12/16 04:50:39;;;;;;;137.80;29.63;;;;;;;;;;5074082;28;20021;-79
2020/12/16 04:53:07;;;;;;;111.75;29.60;;;;;;;;;;5073702;28;20028;-78
2020/12/16 04:55:34;;;;;;;49.75;24.67;;;;;;;;;;5073755;28;20467;-78
2020/12/16 04:58:00;;;;;;;87.85;30.30;;;;;;;;;;5073946;28;20091;-79
2020/12/16 05:00:27;;;;;;;24.08;16.20;;;;;;;;;;5073580;28;20025;-79
2020/12/16 05:02:56;;;;;;;43.58;19.33;;;;;;;;;;5073781;28;20021;-79
2020/12/16 05:05:22;;;;;;;99.30;33.95;;;;;;;;;;5073518;28;20013;-78
2020/12/16 05:07:48;;;;;;;70.10;32.13;;;;;;;;;;5073633;28;20056;-79
2020/12/16 05:10:15;;;;;;;121.10;33.60;;;;;;;;;;5074830;28;20056;-79
2020/12/16 05:12:42;;;;;;;57.72;28.90;;;;;;;;;;5073530;28;20051;-79
2020/12/16 05:15:21;;;;;;;176.65;37.05;;;;;;;;;;5073606;28;20017;-79
2020/12/16 05:18:02;;;;;;;81.47;26.95;;;;;;;;;;5073299;28;20059;-79
2020/12/16 05:20:28;;;;;;;90.15;29.17;;;;;;;;;;5072124;28;20353;-78
2020/12/16 05:22:58;;;;;;;85.30;22.17;;;;;;;;;;5073529;28;20383;-77
2020/12/16 05:25:24;;;;;;;84.15;29.42;;;;;;;;;;5073249;28;20016;-77
2020/12/16 05:27:51;;;;;;;98.32;31.80;;;;;;;;;;5073391;28;20016;-78
2020/12/16 05:30:18;;;;;;;30.15;19.15;;;;;;;;;;5072991;28;20024;-77
2020/12/16 05:32:44;;;;;;;151.50;31.45;;;;;;;;;;5073327;28;20360;-77
2020/12/16 05:35:20;;;;;;;139.60;35.40;;;;;;;;;;5073260;28;20020;-79
2020/12/16 05:37:46;;;;;;;130.77;30.65;;;;;;;;;;5073176;28;20013;-78
2020/12/16 05:40:15;;;;;;;159.88;34.78;;;;;;;;;;5073020;28;20024;-78
2020/12/16 05:42:41;;;;;;;78.95;32.40;;;;;;;;;;5072828;28;20016;-78
2020/12/16 05:45:29;;;;;;;121.45;32.40;;;;;;;;;;5072980;28;20070;-78
2020/12/16 05:48:05;;;;;;;66.53;32.78;;;;;;;;;;5072879;28;20021;-78
2020/12/16 05:50:34;;;;;;;130.85;33.40;;;;;;;;;;5073958;28;20456;-78
2020/12/16 05:53:10;;;;;;;77.78;31.75;;;;;;;;;;5072887;28;20021;-78
2020/12/16 05:55:37;;;;;;;165.80;35.30;;;;;;;;;;5072608;28;20017;-78
2020/12/16 05:58:10;;;;;;;75.28;28.42;;;;;;;;;;5074057;28;20027;-78
2020/12/16 06:00:43;;;;;;;76.88;30.25;;;;;;;;;;5072478;28;20025;-78
2020/12/16 06:03:15;;;;;;;69.93;26.13;;;;;;;;;;5074052;28;20025;-77
2020/12/16 06:05:41;;;;;;;80.38;30.95;;;;;;;;;;5072059;28;20024;-77
2020/12/16 06:08:07;;;;;;;62.38;28.48;;;;;;;;;;5072532;28;20013;-77
2020/12/16 06:10:35;;;;;;;119.15;29.70;;;;;;;;;;5072213;28;20515;-77
2020/12/16 06:13:05;;;;;;;135.60;30.75;;;;;;;;;;5073669;28;20047;-77
2020/12/16 06:15:32;;;;;;;48.60;27.23;;;;;;;;;;5072195;28;20111;-77
2020/12/16 06:18:03;;;;;;;39.95;24.10;;;;;;;;;;5072137;28;20041;-77
2020/12/16 06:20:36;;;;;;;39.85;24.33;;;;;;;;;;5073354;28;20056;-77
2020/12/16 06:23:03;;;;;;;39.20;25.80;;;;;;;;;;5072224;28;20017;-77
2020/12/16 06:25:33;;;;;;;39.92;25.85;;;;;;;;;;5072014;28;20062;-77
2020/12/16 06:28:00;;;;;;;40.95;25.83;;;;;;;;;;5072155;28;20051;-77
2020/12/16 06:30:29;;;;;;;33.33;21.92;;;;;;;;;;5071602;28;20017;-77
2020/12/16 06:33:02;;;;;;;40.40;24.35;;;;;;;;;;5071762;28;20039;-77
2020/12/16 06:35:29;;;;;;;37.65;22.48;;;;;;;;;;5073259;28;20055;-77
2020/12/16 06:38:14;;;;;;;31.73;20.05;;;;;;;;;;5073289;28;20511;-77
2020/12/16 06:40:44;;;;;;;31.50;19.08;;;;;;;;;;5071564;28;20032;-78
2020/12/16 06:43:29;;;;;;;37.22;23.15;;;;;;;;;;5071854;28;20453;-78
2020/12/16 06:45:55;;;;;;;43.15;26.58;;;;;;;;;;5071783;28;20016;-78
2020/12/16 06:48:32;;;;;;;37.25;25.30;;;;;;;;;;5071562;28;20028;-78
2020/12/16 06:51:17;;;;;;;38.83;25.00;;;;;;;;;;5073069;28;20457;-78
2020/12/16 06:53:44;;;;;;;36.70;24.85;;;;;;;;;;5072691;28;20062;-78
2020/12/16 06:56:10;;;;;;;37.25;22.92;;;;;;;;;;5071704;28;20411;-78
2020/12/16 06:58:37;;;;;;;31.05;19.58;;;;;;;;;;5071372;28;20024;-78
2020/12/16 07:01:14;;;;;;;24.70;15.98;;;;;;;;;;5071511;28;20032;-77
2020/12/16 07:03:40;;;;;;;21.83;13.32;;;;;;;;;;5071367;28;20020;-78
2020/12/16 07:06:25;;;;;;;28.52;19.98;;;;;;;;;;5072795;28;20035;-78
2020/12/16 07:09:11;;;;;;;30.88;19.50;;;;;;;;;;5071472;28;20048;-78
2020/12/16 07:11:40;;;;;;;30.95;21.23;;;;;;;;;;5071926;28;20403;-78
2020/12/16 07:14:17;;;;;;;34.17;22.73;;;;;;;;;;5071166;28;20111;-78
2020/12/16 07:16:43;;;;;;;23.73;15.63;;;;;;;;;;5070976;28;20496;-79
2020/12/16 07:19:10;;;;;;;32.30;19.42;;;;;;;;;;5071008;28;20012;-78
2020/12/16 07:21:38;;;;;;;34.22;20.98;;;;;;;;;;5071082;28;20360;-78
2020/12/16 07:24:05;;;;;;;29.05;18.45;;;;;;;;;;5072460;28;20107;-79
2020/12/16 07:26:33;;;;;;;32.70;22.17;;;;;;;;;;5066724;28;20025;-79
2020/12/16 07:29:00;;;;;;;35.85;21.55;;;;;;;;;;5059443;28;20032;-79
2020/12/16 07:31:26;;;;;;;29.25;19.30;;;;;;;;;;5058417;28;20028;-78
2020/12/16 07:33:53;;;;;;;31.80;21.42;;;;;;;;;;5059622;28;20024;-78
2020/12/16 07:36:20;;;;;;;30.73;20.42;;;;;;;;;;5056802;28;20021;-77
2020/12/16 07:38:54;;;;;;;35.15;21.13;;;;;;;;;;5070919;28;20033;-77
2020/12/16 07:41:24;;;;;;;28.33;20.88;;;;;;;;;;5065462;28;20064;-77
2020/12/16 07:43:50;;;;;;;30.38;21.13;;;;;;;;;;5050299;28;20465;-77
2020/12/16 07:46:16;;;;;;;25.60;16.58;;;;;;;;;;5051024;28;20017;-77
2020/12/16 07:48:45;;;;;;;21.88;14.75;;;;;;;;;;5050663;28;20056;-78
2020/12/16 07:51:11;;;;;;;28.08;18.27;;;;;;;;;;5052242;28;20029;-78
2020/12/16 07:53:43;;;;;;;32.92;20.90;;;;;;;;;;5050736;28;20021;-78
2020/12/16 07:56:09;;;;;;;29.35;18.63;;;;;;;;;;5050792;28;20437;-78
2020/12/16 07:58:35;;;;;;;27.08;18.33;;;;;;;;;;5051860;28;20517;-78
2020/12/16 08:01:07;;;;;;;20.17;13.45;;;;;;;;;;5051751;28;20062;-78
2020/12/16 08:03:34;;;;;;;24.77;16.52;;;;;;;;;;5050145;28;20021;-78
2020/12/16 08:06:00;;;;;;;24.95;17.35;;;;;;;;;;5050505;28;20013;-78
2020/12/16 08:08:26;;;;;;;29.23;18.35;;;;;;;;;;5050271;28;20028;-78
2020/12/16 08:10:52;;;;;;;28.90;20.55;;;;;;;;;;5050448;28;20083;-78
2020/12/16 08:13:20;;;;;;;27.58;19.75;;;;;;;;;;5050448;28;20017;-79
2020/12/16 08:15:46;;;;;;;29.65;20.67;;;;;;;;;;5050420;28;20021;-76
2020/12/16 08:18:15;;;;;;;23.35;15.30;;;;;;;;;;5050206;28;20041;-78
2020/12/16 08:20:42;;;;;;;25.17;18.45;;;;;;;;;;5050422;28;20090;-77
2020/12/16 08:23:11;;;;;;;23.85;17.63;;;;;;;;;;5050800;28;20331;-78
2020/12/16 08:25:37;;;;;;;26.05;18.40;;;;;;;;;;5051923;28;20017;-78
2020/12/16 08:28:05;;;;;;;22.45;16.52;;;;;;;;;;5051816;28;20031;-77
2020/12/16 08:30:32;;;;;;;27.52;18.58;;;;;;;;;;5050247;28;20080;-77
2020/12/16 08:33:01;;;;;;;26.25;18.50;;;;;;;;;;5050317;28;20120;-77
2020/12/16 08:35:29;;;;;;;26.85;17.83;;;;;;;;;;5051505;28;20028;-77
2020/12/16 08:37:56;;;;;;;19.83;12.90;;;;;;;;;;5059200;28;20024;-78
2020/12/16 08:40:23;;;;;;;17.85;12.07;;;;;;;;;;5070044;28;20032;-78
2020/12/16 08:42:49;;;;;;;18.48;14.30;;;;;;;;;;5053907;28;20075;-78
2020/12/16 08:45:18;;;;;;;18.75;11.18;;;;;;;;;;5050280;28;20454;-78
2020/12/16 08:47:44;;;;;;;22.88;13.88;;;;;;;;;;5049976;28;20356;-78
2020/12/16 08:50:18;;;;;;;14.13;9.98;;;;;;;;;;5049929;28;20345;-78
2020/12/16 08:52:45;;;;;;;14.82;10.07;;;;;;;;;;5050114;28;20021;-78
2020/12/16 08:55:12;;;;;;;16.00;11.63;;;;;;;;;;5053291;28;20413;-79
2020/12/16 08:57:48;;;;;;;15.88;10.40;;;;;;;;;;5053621;28;20460;-79
2020/12/16 09:00:15;;;;;;;14.20;10.68;;;;;;;;;;5053718;28;20064;-78
2020/12/16 09:02:41;;;;;;;16.38;10.93;;;;;;;;;;5053501;28;20055;-79
2020/12/16 09:05:06;;;;;;;16.27;10.73;;;;;;;;;;5053672;28;20052;-78
2020/12/16 09:07:35;;;;;;;12.65;9.48;;;;;;;;;;5053115;28;20526;-78
2020/12/16 09:10:02;;;;;;;16.90;11.10;;;;;;;;;;5054885;28;20095;-78
2020/12/16 09:12:28;;;;;;;11.77;8.25;;;;;;;;;;5053568;28;20021;-77
2020/12/16 09:14:55;;;;;;;15.32;10.20;;;;;;;;;;5053512;28;20024;-76
2020/12/16 09:17:25;;;;;;;14.73;10.88;;;;;;;;;;5054657;28;20462;-78
2020/12/16 09:19:51;;;;;;;21.23;13.48;;;;;;;;;;5053218;28;20025;-78
2020/12/16 09:22:25;;;;;;;21.23;15.20;;;;;;;;;;5053455;28;20067;-78
2020/12/16 09:24:51;;;;;;;15.68;11.27;;;;;;;;;;5053074;28;20088;-79
2020/12/16 09:27:17;;;;;;;14.73;9.80;;;;;;;;;;5054538;28;20095;-78
2020/12/16 09:29:44;;;;;;;18.92;12.07;;;;;;;;;;5053831;28;20024;-76
2020/12/16 09:32:11;;;;;;;12.00;7.85;;;;;;;;;;5053012;28;20111;-75
2020/12/16 09:34:42;;;;;;;14.20;9.10;;;;;;;;;;5052952;28;20052;-77
2020/12/16 09:37:12;;;;;;;12.70;9.05;;;;;;;;;;5053038;28;20070;-77
2020/12/16 09:39:39;;;;;;;11.07;7.30;;;;;;;;;;5054279;28;20029;-77
2020/12/16 09:42:09;;;;;;;12.07;7.72;;;;;;;;;;5053292;28;20013;-77
2020/12/16 09:44:35;;;;;;;9.02;6.07;;;;;;;;;;5054160;28;20074;-77
2020/12/16 09:47:24;;;;;;;10.25;5.47;;;;;;;;;;5052977;28;20024;-77
2020/12/16 09:50:04;;;;;;;12.65;7.47;;;;;;;;;;5053954;28;20087;-77
2020/12/16 09:52:31;;;;;;;10.57;7.50;;;;;;;;;;5052865;28;20017;-77
2020/12/16 09:54:58;;;;;;;8.27;5.32;;;;;;;;;;5052790;28;20017;-77
2020/12/16 09:57:24;;;;;;;7.78;4.97;;;;;;;;;;5052617;28;20075;-78
2020/12/16 09:59:51;;;;;;;23.33;6.85;;;;;;;;;;5052353;28;20029;-77
2020/12/16 10:02:20;;;;;;;10.13;6.35;;;;;;;;;;5053897;28;20457;-75
2020/12/16 10:04:46;;;;;;;11.23;7.30;;;;;;;;;;5053704;28;20032;-75
2020/12/16 10:07:12;;;;;;;9.38;6.32;;;;;;;;;;5052212;28;20453;-76
2020/12/16 10:09:39;;;;;;;9.60;6.15;;;;;;;;;;5053621;28;20100;-78
2020/12/16 10:12:05;;;;;;;7.75;5.47;;;;;;;;;;5053856;28;20335;-75
2020/12/16 10:14:31;;;;;;;8.85;6.28;;;;;;;;;;5053509;28;20029;-82
2020/12/16 10:16:58;;;;;;;9.98;6.40;;;;;;;;;;5052169;28;20052;-80
2020/12/16 10:19:24;;;;;;;10.10;6.18;;;;;;;;;;5052286;28;20023;-76
2020/12/16 10:21:51;;;;;;;9.05;5.97;;;;;;;;;;5051956;28;20021;-77
2020/12/16 10:24:18;;;;;;;7.70;4.93;;;;;;;;;;5052145;28;20119;-77
2020/12/16 10:26:47;;;;;;;7.93;5.30;;;;;;;;;;5052895;28;20044;-77
2020/12/16 10:29:16;;;;;;;8.00;4.28;;;;;;;;;;5053280;28;20025;-76
2020/12/16 10:31:46;;;;;;;6.93;4.03;;;;;;;;;;5053117;28;20024;-76
2020/12/16 10:34:12;;;;;;;7.30;3.60;;;;;;;;;;5052067;28;20052;-77
2020/12/16 10:36:38;;;;;;;6.22;4.22;;;;;;;;;;5053402;28;20045;-76
2020/12/16 10:39:04;;;;;;;8.18;4.90;;;;;;;;;;5051870;28;20032;-77
2020/12/16 10:41:29;;;;;;;10.32;5.75;;;;;;;;;;5053186;28;20033;-76
2020/12/16 10:43:55;;;;;;;6.03;3.75;;;;;;;;;;5051635;28;20450;-77
2020/12/16 10:46:21;;;;;;;6.22;3.28;;;;;;;;;;5053113;28;20020;-76
2020/12/16 10:48:47;;;;;;;8.32;4.55;;;;;;;;;;5052557;28;20044;-76
2020/12/16 10:51:13;;;;;;;10.60;5.10;;;;;;;;;;5053012;28;20052;-76
2020/12/16 10:53:39;;;;;;;9.15;5.15;;;;;;;;;;5051195;28;20021;-77
2020/12/16 10:56:06;;;;;;;9.82;5.05;;;;;;;;;;5051584;28;20036;-76
2020/12/16 10:58:32;;;;;;;12.18;6.68;;;;;;;;;;5051592;28;20365;-76
2020/12/16 11:00:58;;;;;;;9.18;6.60;;;;;;;;;;5051278;28;20052;-76
2020/12/16 11:03:24;;;;;;;11.07;6.25;;;;;;;;;;5053088;28;20021;-76
2020/12/16 11:05:50;;;;;;;9.02;4.85;;;;;;;;;;5051220;28;20067;-76
2020/12/16 11:08:16;;;;;;;7.38;4.20;;;;;;;;;;5052668;28;20017;-76
2020/12/16 11:10:49;;;;;;;6.00;3.60;;;;;;;;;;5051272;28;20025;-76
2020/12/16 11:13:15;;;;;;;7.68;4.50;;;;;;;;;;5053177;28;20023;-76
2020/12/16 11:15:41;;;;;;;11.27;6.07;;;;;;;;;;5066566;28;20017;-76
2020/12/16 11:18:06;;;;;;;6.65;4.32;;;;;;;;;;5068810;28;20053;-77
2020/12/16 11:20:32;;;;;;;7.55;4.68;;;;;;;;;;5068645;28;20086;-76
2020/12/16 11:22:58;;;;;;;8.90;6.47;;;;;;;;;;5067676;28;20607;-76
2020/12/16 11:25:24;;;;;;;6.88;4.45;;;;;;;;;;5070100;28;20060;-80
2020/12/16 11:27:51;;;;;;;8.85;5.70;;;;;;;;;;5068770;28;20086;-81
2020/12/16 11:30:17;;;;;;;8.02;5.85;;;;;;;;;;5069579;28;20425;-81
2020/12/16 11:32:43;;;;;;;9.27;6.07;;;;;;;;;;5069478;28;20115;-79
2020/12/16 11:35:09;;;;;;;9.75;5.90;;;;;;;;;;5067326;28;20095;-79
2020/12/16 11:37:39;;;;;;;7.40;4.70;;;;;;;;;;5067726;28;20024;-79
2020/12/16 11:40:05;;;;;;;9.60;5.83;;;;;;;;;;5067720;28;20041;-79
2020/12/16 11:42:31;;;;;;;9.52;6.15;;;;;;;;;;5066906;28;20017;-79
2020/12/16 11:44:57;;;;;;;7.88;5.47;;;;;;;;;;5068412;28;20075;-77
2020/12/16 11:47:23;;;;;;;9.45;5.75;;;;;;;;;;5068485;28;20009;-75
2020/12/16 11:49:49;;;;;;;28.50;21.83;;;;;;;;;;5070282;28;20392;-77
2020/12/16 11:52:15;;;;;;;22.58;16.02;;;;;;;;;;5070726;28;20044;-76
2020/12/16 11:54:41;;;;;;;13.32;8.65;;;;;;;;;;5069774;28;20107;-78
2020/12/16 11:57:07;;;;;;;13.77;9.60;;;;;;;;;;5054377;28;20029;-78
2020/12/16 11:59:33;;;;;;;10.02;6.45;;;;;;;;;;5050314;28;20036;-79
2020/12/16 12:02:02;;;;;;;10.88;7.70;;;;;;;;;;5051620;28;20021;-78
2020/12/16 12:04:28;;;;;;;11.98;7.90;;;;;;;;;;5050671;28;20543;-78
2020/12/16 12:06:54;;;;;;;12.55;8.60;;;;;;;;;;5050283;28;20353;-78
2020/12/16 12:09:24;;;;;;;12.02;8.25;;;;;;;;;;5050558;28;20017;-78
2020/12/16 12:11:50;;;;;;;13.03;8.70;;;;;;;;;;5051781;28;20071;-78
2020/12/16 12:14:18;;;;;;;12.20;8.27;;;;;;;;;;5050544;28;20017;-78
2020/12/16 12:16:44;;;;;;;8.95;6.03;;;;;;;;;;5050726;28;20044;-79
2020/12/16 12:19:10;;;;;;;9.88;7.70;;;;;;;;;;5051724;28;20022;-78
2020/12/16 12:21:36;;;;;;;10.45;7.90;;;;;;;;;;5051634;28;20036;-79
2020/12/16 12:24:02;;;;;;;11.80;8.25;;;;;;;;;;5051352;28;20017;-78
2020/12/16 12:26:28;;;;;;;10.77;7.90;;;;;;;;;;5050309;28;20040;-78
2020/12/16 12:28:55;;;;;;;11.35;7.30;;;;;;;;;;5051505;28;20442;-77
2020/12/16 12:31:21;;;;;;;11.25;8.48;;;;;;;;;;5054005;28;20024;-75
2020/12/16 12:33:47;;;;;;;14.43;9.88;;;;;;;;;;5053981;28;20024;-75
2020/12/16 12:36:13;;;;;;;12.48;9.23;;;;;;;;;;5054074;28;20017;-75
2020/12/16 12:38:39;;;;;;;12.75;9.18;;;;;;;;;;5053841;28;20062;-76
2020/12/16 12:41:05;;;;;;;15.38;10.88;;;;;;;;;;5055335;28;20025;-77
2020/12/16 12:43:31;;;;;;;15.32;10.98;;;;;;;;;;5053979;28;20099;-77
2020/12/16 12:45:57;;;;;;;14.35;10.93;;;;;;;;;;5053650;28;20025;-77
2020/12/16 12:48:23;;;;;;;15.13;12.13;;;;;;;;;;5053864;28;20025;-77
2020/12/16 12:50:49;;;;;;;14.73;11.35;;;;;;;;;;5054747;28;20021;-77
2020/12/16 12:53:15;;;;;;;14.73;11.23;;;;;;;;;;5053601;28;20024;-77
2020/12/16 12:55:41;;;;;;;15.68;10.38;;;;;;;;;;5053482;28;20028;-78
2020/12/16 12:58:08;;;;;;;15.50;11.57;;;;;;;;;;5053742;28;20017;-78
2020/12/16 13:00:34;;;;;;;15.27;10.65;;;;;;;;;;5053586;28;20033;-78
2020/12/16 13:03:00;;;;;;;14.25;10.43;;;;;;;;;;5053523;28;20016;-77
2020/12/16 13:05:26;;;;;;;12.80;9.38;;;;;;;;;;5053663;28;20366;-77
2020/12/16 13:07:52;;;;;;;14.98;9.80;;;;;;;;;;5053381;28;20420;-77
2020/12/16 13:10:18;;;;;;;18.08;10.85;;;;;;;;;;5053590;28;20021;-77
2020/12/16 13:12:44;;;;;;;13.40;8.18;;;;;;;;;;5052919;28;20021;-76
2020/12/16 13:15:10;;;;;;;12.25;8.93;;;;;;;;;;5054084;28;20021;-75
2020/12/16 13:17:36;;;;;;;13.73;8.38;;;;;;;;;;5052874;28;20048;-76
2020/12/16 13:20:02;;;;;;;15.25;9.70;;;;;;;;;;5055482;28;20539;-77
2020/12/16 13:22:28;;;;;;;13.07;9.00;;;;;;;;;;5070204;28;20514;-77
2020/12/16 13:24:54;;;;;;;14.38;10.27;;;;;;;;;;5071479;28;20013;-77
2020/12/16 13:27:20;;;;;;;13.68;9.13;;;;;;;;;;5072841;28;20023;-77
2020/12/16 13:29:46;;;;;;;13.50;9.15;;;;;;;;;;5071205;28;20523;-77
2020/12/16 13:32:12;;;;;;;21.42;11.73;;;;;;;;;;5067615;28;20624;-77
2020/12/16 13:34:39;;;;;;;14.93;10.60;;;;;;;;;;5072009;28;20481;-77
2020/12/16 13:37:05;;;;;;;15.02;11.25;;;;;;;;;;5072358;28;20481;-78
2020/12/16 13:39:31;;;;;;;15.55;10.00;;;;;;;;;;5072212;28;20024;-78
2020/12/16 13:41:58;;;;;;;14.85;10.60;;;;;;;;;;5063129;28;20021;-79
2020/12/16 13:44:24;;;;;;;17.35;12.10;;;;;;;;;;5059529;28;20476;-79
2020/12/16 13:46:50;;;;;;;15.65;11.43;;;;;;;;;;5071951;28;20028;-79
2020/12/16 13:49:16;;;;;;;15.85;11.48;;;;;;;;;;5073653;28;20068;-79
2020/12/16 13:51:42;;;;;;;18.80;13.50;;;;;;;;;;5072602;28;20517;-79
2020/12/16 13:54:08;;;;;;;18.48;14.20;;;;;;;;;;5072714;28;20020;-79
2020/12/16 13:56:34;;;;;;;20.33;13.63;;;;;;;;;;5072870;28;20352;-78
2020/12/16 13:59:00;;;;;;;21.73;15.18;;;;;;;;;;5072364;28;20540;-79
2020/12/16 14:01:27;;;;;;;19.83;14.43;;;;;;;;;;5072069;28;20025;-79
2020/12/16 14:03:53;;;;;;;26.15;18.33;;;;;;;;;;5068814;28;20016;-79
2020/12/16 14:06:20;;;;;;;23.45;16.40;;;;;;;;;;5086499;28;20019;-79
2020/12/16 14:08:46;;;;;;;28.15;20.35;;;;;;;;;;5075446;28;20013;-79
2020/12/16 14:11:13;;;;;;;28.30;21.08;;;;;;;;;;5087693;28;20016;-78
2020/12/16 14:13:40;;;;;;;26.38;18.55;;;;;;;;;;5080341;28;20072;-78
2020/12/16 14:16:07;;;;;;;22.92;13.82;;;;;;;;;;5081263;28;20089;-78
2020/12/16 14:18:33;;;;;;;27.98;19.33;;;;;;;;;;5073393;28;20052;-78